createdAt,value
2022-11-22T00:01:18.842Z,97426.28
2022-11-22T00:02:50.454Z,97422.88
2022-11-22T00:04:22.002Z,97423.59
2022-11-22T00:05:53.563Z,97416.31
2022-11-22T00:07:25.198Z,97409.50
2022-11-22T00:08:56.836Z,97409.50
2022-11-22T00:10:28.372Z,97414.13
2022-11-22T00:12:00.631Z,97416.09
2022-11-22T00:13:32.605Z,97421.91
2022-11-22T00:15:04.988Z,97419.97
2022-11-22T00:16:36.523Z,97417.28
2022-11-22T00:18:08.091Z,97414.63
2022-11-22T00:19:39.653Z,97411.44
2022-11-22T00:21:11.219Z,97408.06
2022-11-22T00:22:44.726Z,97406.81
2022-11-22T00:24:16.624Z,97409.50
2022-11-22T00:25:48.275Z,97402.00
2022-11-22T00:27:20.107Z,97392.72
2022-11-22T00:28:51.691Z,97398.06
2022-11-22T00:30:23.286Z,97403.19
2022-11-22T00:31:54.832Z,97399.78
2022-11-22T00:33:26.385Z,97401.25
2022-11-22T00:34:57.937Z,97404.66
2022-11-22T00:36:29.515Z,97395.19
2022-11-22T00:38:01.057Z,97380.59
2022-11-22T00:39:32.832Z,97386.44
2022-11-22T00:41:04.579Z,97386.69
2022-11-22T00:42:36.122Z,97394.69
2022-11-22T00:44:07.682Z,97384.00
2022-11-22T00:45:41.080Z,97381.34
2022-11-22T00:47:12.678Z,97386.69
2022-11-22T00:48:44.248Z,97392.72
2022-11-22T00:50:16.098Z,97391.31
2022-11-22T00:51:47.682Z,97386.69
2022-11-22T00:53:19.352Z,97381.59
2022-11-22T00:54:54.822Z,97404.16
2022-11-22T00:56:26.840Z,97389.34
2022-11-22T00:57:58.417Z,97392.03
2022-11-22T00:59:30.444Z,97386.69
2022-11-22T01:01:02.969Z,97393.47
2022-11-22T01:02:34.557Z,97392.03
2022-11-22T01:04:06.204Z,97388.84
2022-11-22T01:05:37.849Z,97392.72
2022-11-22T01:07:09.879Z,97382.53
2022-11-22T01:08:41.459Z,97397.84
2022-11-22T01:10:13.027Z,97386.44
2022-11-22T01:11:44.642Z,97390.56
2022-11-22T01:13:16.288Z,97391.78
2022-11-22T01:14:47.852Z,97390.31
2022-11-22T01:16:19.445Z,97389.59
2022-11-22T01:17:51.500Z,97379.88
2022-11-22T01:19:23.058Z,97388.16
2022-11-22T01:20:54.698Z,97370.66
2022-11-22T01:22:26.261Z,97376.00
2022-11-22T01:23:57.819Z,97380.84
2022-11-22T01:25:29.373Z,97370.66
2022-11-22T01:27:00.911Z,97367.97
2022-11-22T01:28:33.130Z,97365.81
2022-11-22T01:30:05.233Z,97369.19
2022-11-22T01:31:36.788Z,97358.50
2022-11-22T01:33:08.987Z,97372.09
2022-11-22T01:34:40.540Z,97359.97
2022-11-22T01:36:12.179Z,97362.63
2022-11-22T01:37:43.771Z,97356.56
2022-11-22T01:39:15.308Z,97352.44
2022-11-22T01:40:47.154Z,97341.50
2022-11-22T01:42:18.702Z,97348.78
2022-11-22T01:43:50.293Z,97354.88
2022-11-22T01:45:30.926Z,97342.25
2022-11-22T01:47:10.820Z,97347.56
2022-11-22T01:49:20.364Z,97346.13
2022-11-22T01:51:07.161Z,97348.78
2022-11-22T01:52:38.700Z,97345.38
2022-11-22T01:54:12.908Z,97333.97
2022-11-22T01:55:44.542Z,97341.28
2022-11-22T01:57:21.030Z,97335.94
2022-11-22T01:58:55.611Z,97338.59
2022-11-22T02:00:27.172Z,97346.63
2022-11-22T02:01:58.722Z,97335.94
2022-11-22T02:03:33.926Z,97329.84
2022-11-22T02:05:10.548Z,97333.00
2022-11-22T02:07:01.617Z,97334.47
2022-11-22T02:08:45.089Z,97334.47
2022-11-22T02:10:16.905Z,97334.47
2022-11-22T02:11:50.455Z,97333.25
2022-11-22T02:13:22.440Z,97332.53
2022-11-22T02:14:54.157Z,97331.06
2022-11-22T02:16:25.772Z,97327.66
2022-11-22T02:17:57.484Z,97331.81
2022-11-22T02:19:39.580Z,97335.19
2022-11-22T02:21:11.141Z,97319.41
2022-11-22T02:23:10.363Z,97317.72
2022-11-22T02:24:49.956Z,97316.97
2022-11-22T02:26:21.570Z,97315.50
2022-11-22T02:27:53.153Z,97310.91
2022-11-22T02:29:24.702Z,97311.16
2022-11-22T02:30:56.257Z,97309.47
2022-11-22T02:32:27.815Z,97304.81
2022-11-22T02:34:01.780Z,97313.09
2022-11-22T02:35:34.524Z,97305.06
2022-11-22T02:37:06.073Z,97302.41
2022-11-22T02:38:37.640Z,97306.53
2022-11-22T02:40:09.628Z,97296.34
2022-11-22T02:41:41.201Z,97294.13
2022-11-22T02:43:18.387Z,97290.50
2022-11-22T02:44:49.924Z,97294.88
2022-11-22T02:46:21.478Z,97292.94
2022-11-22T02:47:53.144Z,97279.09
2022-11-22T02:49:24.817Z,97292.19
2022-11-22T02:50:56.370Z,97286.13
2022-11-22T02:52:27.927Z,97294.13
2022-11-22T02:53:59.510Z,97295.59
2022-11-22T02:55:31.060Z,97288.78
2022-11-22T02:57:03.332Z,97282.75
2022-11-22T02:58:35.284Z,97278.63
2022-11-22T03:00:07.441Z,97277.88
2022-11-22T03:01:39.064Z,97275.47
2022-11-22T03:03:10.645Z,97276.44
2022-11-22T03:04:42.214Z,97274.47
2022-11-22T03:06:13.770Z,97275.22
2022-11-22T03:07:45.514Z,97271.81
2022-11-22T03:09:17.309Z,97277.16
2022-11-22T03:10:48.864Z,97275.22
2022-11-22T03:12:20.420Z,97260.38
2022-11-22T03:13:52.052Z,97260.63
2022-11-22T03:15:23.605Z,97257.97
2022-11-22T03:16:55.160Z,97259.41
2022-11-22T03:18:26.716Z,97267.41
2022-11-22T03:19:58.316Z,97261.38
2022-11-22T03:21:29.872Z,97265.25
2022-11-22T03:23:01.796Z,97260.63
2022-11-22T03:24:33.442Z,97257.25
2022-11-22T03:26:09.147Z,97241.69
2022-11-22T03:27:40.732Z,97243.88
2022-11-22T03:29:12.393Z,97245.34
2022-11-22T03:30:43.952Z,97234.66
2022-11-22T03:32:15.556Z,97243.88
2022-11-22T03:33:47.141Z,97246.03
2022-11-22T03:35:18.748Z,97254.78
2022-11-22T03:36:50.304Z,97260.88
2022-11-22T03:38:21.860Z,97248.97
2022-11-22T03:39:53.432Z,97248.22
2022-11-22T03:41:24.982Z,97248.97
2022-11-22T03:43:01.800Z,97256.97
2022-11-22T03:44:33.355Z,97244.84
2022-11-22T03:46:04.924Z,97243.63
2022-11-22T03:47:36.471Z,97241.44
2022-11-22T03:49:08.009Z,97234.88
2022-11-22T03:50:39.780Z,97234.16
2022-11-22T03:52:11.438Z,97231.47
2022-11-22T03:53:43.086Z,97231.47
2022-11-22T03:55:14.849Z,97226.13
2022-11-22T03:56:46.393Z,97224.91
2022-11-22T03:58:17.965Z,97226.13
2022-11-22T03:59:49.523Z,97230.25
2022-11-22T04:01:21.130Z,97232.94
2022-11-22T04:02:52.779Z,97231.47
2022-11-22T04:04:24.340Z,97223.47
2022-11-22T04:05:55.896Z,97225.41
2022-11-22T04:07:27.468Z,97226.13
2022-11-22T04:08:59.125Z,97234.66
2022-11-22T04:10:30.724Z,97222.00
2022-11-22T04:12:02.285Z,97217.16
2022-11-22T04:13:33.903Z,97217.88
2022-11-22T04:15:05.864Z,97227.13
2022-11-22T04:16:37.425Z,97235.13
2022-11-22T04:18:10.161Z,97230.53
2022-11-22T04:19:41.735Z,97224.44
2022-11-22T04:21:13.290Z,97227.13
2022-11-22T04:22:44.841Z,97225.66
2022-11-22T04:24:16.406Z,97234.41
2022-11-22T04:25:49.205Z,97221.31
2022-11-22T04:27:20.762Z,97222.25
2022-11-22T04:29:09.094Z,97229.56
2022-11-22T04:30:41.499Z,97221.56
2022-11-22T04:32:13.068Z,97210.13
2022-11-22T04:33:44.622Z,97212.06
2022-11-22T04:35:16.689Z,97205.28
2022-11-22T04:36:48.242Z,97198.72
2022-11-22T04:38:20.096Z,97207.47
2022-11-22T04:39:51.662Z,97206.72
2022-11-22T04:41:23.196Z,97202.84
2022-11-22T04:42:54.756Z,97211.56
2022-11-22T04:44:26.355Z,97208.19
2022-11-22T04:46:00.705Z,97206.00
2022-11-22T04:47:32.274Z,97204.78
2022-11-22T04:49:03.985Z,97196.03
2022-11-22T04:50:35.558Z,97202.84
2022-11-22T04:52:07.084Z,97201.38
2022-11-22T04:53:38.635Z,97195.31
2022-11-22T04:55:10.307Z,97205.53
2022-11-22T04:56:41.861Z,97208.19
2022-11-22T04:58:13.650Z,97204.06
2022-11-22T04:59:45.197Z,97205.28
2022-11-22T05:01:17.175Z,97213.28
2022-11-22T05:02:48.833Z,97215.22
2022-11-22T05:04:20.373Z,97199.19
2022-11-22T05:05:51.942Z,97215.97
2022-11-22T05:07:23.514Z,97193.66
2022-11-22T05:08:55.123Z,97208.69
2022-11-22T05:10:27.406Z,97208.19
2022-11-22T05:11:59.057Z,97211.56
2022-11-22T05:13:33.177Z,97210.13
2022-11-22T05:15:05.266Z,97209.41
2022-11-22T05:16:36.867Z,97204.06
2022-11-22T05:18:08.409Z,97211.34
2022-11-22T05:19:41.817Z,97207.94
2022-11-22T05:21:16.405Z,97200.66
2022-11-22T05:22:47.962Z,97205.28
2022-11-22T05:24:19.517Z,97200.41
2022-11-22T05:25:51.100Z,97205.28
2022-11-22T05:27:22.657Z,97210.41
2022-11-22T05:28:54.328Z,97201.13
2022-11-22T05:30:25.896Z,97202.38
2022-11-22T05:31:57.480Z,97203.81
2022-11-22T05:33:29.031Z,97203.09
2022-11-22T05:35:00.619Z,97195.59
2022-11-22T05:36:32.981Z,97211.59
2022-11-22T05:38:04.529Z,97204.31
2022-11-22T05:39:36.094Z,97208.94
2022-11-22T05:41:09.439Z,97205.53
2022-11-22T05:42:40.997Z,97211.59
2022-11-22T05:44:12.626Z,97213.06
2022-11-22T05:45:44.176Z,97213.06
2022-11-22T05:47:15.756Z,97221.09
2022-11-22T05:48:47.548Z,97215.75
2022-11-22T05:50:19.109Z,97215.75
2022-11-22T05:51:59.114Z,97222.28
2022-11-22T05:53:30.733Z,97218.88
2022-11-22T05:55:02.337Z,97226.16
2022-11-22T05:56:33.886Z,97218.88
2022-11-22T05:58:05.440Z,97199.97
2022-11-22T05:59:42.557Z,97151.94
2022-11-22T06:01:22.723Z,97160.47
2022-11-22T06:02:54.304Z,97174.81
2022-11-22T06:04:25.847Z,97187.91
2022-11-22T06:05:59.583Z,97187.44
2022-11-22T06:07:31.261Z,97199.06
2022-11-22T06:09:02.960Z,97197.34
2022-11-22T06:10:34.544Z,97202.47
2022-11-22T06:12:06.297Z,97201.47
2022-11-22T06:13:39.695Z,97205.09
2022-11-22T06:15:11.257Z,97200.03
2022-11-22T06:16:42.829Z,97214.81
2022-11-22T06:18:14.396Z,97210.19
2022-11-22T06:19:45.949Z,97207.78
2022-11-22T06:21:20.040Z,97206.06
2022-11-22T06:22:51.603Z,97217.47
2022-11-22T06:24:23.217Z,97208.94
2022-11-22T06:26:05.653Z,97219.88
2022-11-22T06:27:37.216Z,97222.78
2022-11-22T06:29:09.464Z,97216.22
2022-11-22T06:30:41.080Z,97214.28
2022-11-22T06:32:12.611Z,97221.09
2022-11-22T06:33:44.347Z,97223.75
2022-11-22T06:35:15.891Z,97222.53
2022-11-22T06:36:47.420Z,97233.47
2022-11-22T06:38:19.007Z,97233.47
2022-11-22T06:39:50.541Z,97232.25
2022-11-22T06:41:26.636Z,97231.03
2022-11-22T06:42:58.183Z,97229.84
2022-11-22T06:44:29.731Z,97238.56
2022-11-22T06:46:01.853Z,97235.91
2022-11-22T06:47:33.399Z,97235.19
2022-11-22T06:49:04.998Z,97233.22
2022-11-22T06:50:36.541Z,97230.06
2022-11-22T06:52:08.118Z,97228.63
2022-11-22T06:53:47.354Z,97225.94
2022-11-22T06:55:48.631Z,97229.09
2022-11-22T06:57:13.545Z,97229.09
2022-11-22T06:58:45.293Z,97234.44
2022-11-22T07:00:17.089Z,97234.44
2022-11-22T07:01:48.749Z,97233.19
2022-11-22T07:03:20.382Z,97232.72
2022-11-22T07:05:23.258Z,97235.38
2022-11-22T07:06:43.487Z,97238.06
2022-11-22T07:08:15.092Z,97236.13
2022-11-22T14:09:32.588Z,97399.25
2022-11-22T14:11:13.047Z,97410.13
2022-11-22T14:12:44.802Z,97388.19
2022-11-22T14:14:19.495Z,97384.69
2022-11-22T14:15:56.187Z,97383.28
2022-11-22T14:17:45.781Z,97388.13
2022-11-22T14:19:20.619Z,97392.47
2022-11-22T14:20:58.423Z,97380.03
2022-11-22T14:22:41.970Z,97383.28
2022-11-22T14:24:21.418Z,97384.38
2022-11-22T14:26:02.034Z,97384.00
2022-11-22T14:27:38.546Z,97384.78
2022-11-22T14:29:25.132Z,97385.31
2022-11-22T14:30:56.533Z,97390.75
2022-11-22T14:32:38.682Z,97397.56
2022-11-22T14:34:17.556Z,97402.69
2022-11-22T14:36:07.324Z,97399.56
2022-11-22T14:37:56.447Z,97401.78
2022-11-22T14:39:46.055Z,97397.69
2022-11-22T14:41:26.486Z,97399.47
2022-11-22T14:43:02.227Z,97394.38
2022-11-22T14:44:33.821Z,97397.81
2022-11-22T14:46:37.195Z,97392.78
2022-11-22T14:48:11.801Z,97393.50
2022-11-22T14:49:45.460Z,97392.78
2022-11-22T14:51:31.936Z,97392.53
2022-11-22T14:53:32.148Z,97388.41
2022-11-22T14:55:05.938Z,97387.19
2022-11-22T14:56:37.503Z,97392.03
2022-11-22T14:58:12.401Z,97395.94
2022-11-22T15:00:06.087Z,97392.75
2022-11-22T15:01:40.463Z,97396.63
2022-11-22T15:03:30.752Z,97392.50
2022-11-22T15:09:13.283Z,97393.69
2022-11-22T15:09:18.206Z,97386.88
2022-11-22T15:10:08.160Z,97395.84
2022-11-22T15:11:42.436Z,97396.13
2022-11-22T15:13:38.602Z,97395.63
2022-11-22T15:58:12.324Z,97431.53
2022-11-22T15:59:44.863Z,97426.91
2022-11-22T16:01:20.612Z,97431.06
2022-11-22T16:02:59.812Z,97423.75
2022-11-22T16:04:34.637Z,97423.25
2022-11-22T16:06:12.058Z,97422.53
2022-11-22T16:07:48.107Z,97420.09
2022-11-22T16:09:38.151Z,97424.72
2022-11-22T16:11:19.526Z,97414.75
2022-11-22T16:12:51.749Z,97420.81
2022-11-22T16:14:42.497Z,97411.56
2022-11-22T16:16:14.111Z,97424.94
2022-11-22T16:17:49.668Z,97416.91
2022-11-22T16:19:24.888Z,97418.38
2022-11-22T16:21:03.476Z,97415.94
2022-11-22T16:22:35.297Z,97422.50
2022-11-22T16:24:16.527Z,97427.34
2022-11-22T16:25:49.801Z,97428.31
2022-11-22T16:27:21.681Z,97438.31
2022-11-22T16:28:53.702Z,97443.16
2022-11-22T16:30:25.569Z,97455.31
2022-11-22T16:32:12.730Z,97460.16
2022-11-22T16:33:44.969Z,97470.84
2022-11-22T16:35:29.140Z,97467.69
2022-11-22T16:37:03.014Z,97470.63
2022-11-22T16:38:34.974Z,97484.25
2022-11-22T16:40:07.782Z,97477.69
2022-11-22T16:41:39.778Z,97479.88
2022-11-22T16:43:22.477Z,97475.72
2022-11-22T16:44:57.246Z,97484.22
2022-11-22T16:46:31.601Z,97486.41
2022-11-22T16:48:30.723Z,97493.97
2022-11-22T16:50:03.553Z,97493.97
2022-11-22T16:51:35.476Z,97497.59
2022-11-22T16:53:15.023Z,97502.44
2022-11-22T16:54:57.063Z,97489.78
2022-11-22T16:56:30.138Z,97487.84
2022-11-22T16:58:23.163Z,97490.03
2022-11-22T16:59:56.284Z,97491.47
2022-11-22T17:01:30.624Z,97491.00
2022-11-22T17:03:02.573Z,97492.22
2022-11-22T17:04:39.461Z,97494.38
2022-11-22T17:06:17.161Z,97495.34
2022-11-22T17:07:49.291Z,97492.69
2022-11-22T17:09:22.188Z,97494.13
2022-11-22T17:10:54.998Z,97497.03
2022-11-22T17:12:33.541Z,97496.78
2022-11-22T17:14:06.030Z,97495.81
2022-11-22T17:15:40.643Z,97489.72
2022-11-22T17:17:12.794Z,97495.06
2022-11-22T17:18:45.596Z,97492.91
2022-11-22T17:20:17.842Z,97490.94
2022-11-22T17:21:49.751Z,97497.03
2022-11-22T17:23:36.582Z,97505.06
2022-11-22T17:25:12.687Z,97496.78
2022-11-22T17:26:46.061Z,97498.72
2022-11-22T17:28:18.967Z,97495.34
2022-11-22T17:29:51.934Z,97501.91
2022-11-22T17:31:23.794Z,97498.50
2022-11-22T17:32:56.208Z,97497.06
2022-11-22T17:34:28.959Z,97502.41
2022-11-22T17:36:01.572Z,97497.56
2022-11-22T17:37:33.728Z,97467.13
2022-11-22T17:39:09.019Z,97415.59
2022-11-22T17:40:42.521Z,97439.72
2022-11-22T17:42:16.029Z,97463.56
2022-11-22T17:43:51.164Z,97474.75
2022-11-22T17:45:24.002Z,97473.78
2022-11-22T17:46:56.423Z,97480.38
2022-11-22T17:48:28.467Z,97472.81
2022-11-22T17:50:00.912Z,97480.13
2022-11-22T17:51:33.281Z,97473.31
2022-11-22T17:53:07.110Z,97477.19
2022-11-22T17:54:38.849Z,97477.94
2022-11-22T17:56:11.752Z,97478.66
2022-11-22T17:57:44.347Z,97474.78
2022-11-22T17:59:16.342Z,97481.34
2022-11-22T18:00:48.699Z,97486.94
2022-11-22T18:02:22.107Z,97490.34
2022-11-22T18:03:55.186Z,97493.03
2022-11-22T18:05:28.490Z,97490.34
2022-11-22T18:07:01.984Z,97499.31
2022-11-22T18:08:34.551Z,97490.56
2022-11-22T18:10:07.699Z,97490.81
2022-11-22T18:11:41.193Z,97492.25
2022-11-22T18:13:21.156Z,97489.56
2022-11-22T18:14:53.924Z,97497.13
2022-11-22T18:16:26.457Z,97493.97
2022-11-22T18:17:58.508Z,97493.97
2022-11-22T18:19:30.905Z,97489.31
2022-11-22T18:21:04.555Z,97490.78
2022-11-22T18:22:36.659Z,97491.53
2022-11-22T18:24:11.173Z,97490.31
2022-11-22T18:25:43.814Z,97490.53
2022-11-22T18:27:16.143Z,97488.59
2022-11-22T18:29:09.357Z,97498.06
2022-11-22T18:30:43.791Z,97489.31
2022-11-22T18:32:16.198Z,97496.09
2022-11-22T18:33:48.502Z,97495.41
2022-11-22T18:35:21.931Z,97503.91
2022-11-22T18:37:00.383Z,97492.00
2022-11-22T18:38:36.126Z,97491.25
2022-11-22T18:40:10.091Z,97495.41
2022-11-22T18:41:42.620Z,97491.47
2022-11-22T18:43:14.807Z,97496.84
2022-11-22T18:44:47.537Z,97490.28
2022-11-22T18:46:20.056Z,97493.69
2022-11-22T18:47:52.146Z,97496.34
2022-11-22T18:49:26.008Z,97501.72
2022-11-22T18:51:07.671Z,97497.09
2022-11-22T18:52:40.085Z,97500.25
2022-11-22T18:54:15.702Z,97498.06
2022-11-22T18:55:48.520Z,97496.63
2022-11-22T18:57:20.694Z,97495.16
2022-11-22T18:58:53.300Z,97497.81
2022-11-22T19:00:25.984Z,97493.69
2022-11-22T19:02:00.734Z,97496.66
2022-11-22T19:03:33.457Z,97502.97
2022-11-22T19:05:06.032Z,97495.91
2022-11-22T19:06:38.593Z,97497.13
2022-11-22T19:08:11.311Z,97505.16
2022-11-22T19:09:43.509Z,97497.59
2022-11-22T19:11:15.796Z,97499.31
2022-11-22T19:12:51.264Z,97502.00
2022-11-22T19:14:23.868Z,97493.97
2022-11-22T19:15:56.298Z,97504.69
2022-11-22T19:17:29.770Z,97505.88
2022-11-22T19:19:03.761Z,97511.03
2022-11-22T19:22:29.164Z,97510.50
2022-11-22T19:24:01.586Z,97512.44
2022-11-22T19:25:36.484Z,97515.88
2022-11-22T19:27:09.029Z,97505.41
2022-11-22T19:28:42.459Z,97510.28
2022-11-22T19:30:15.793Z,97513.44
2022-11-22T19:31:48.001Z,97513.44
2022-11-22T19:33:20.026Z,97510.53
2022-11-22T19:34:52.643Z,97511.50
2022-11-22T19:36:32.716Z,97525.84
2022-11-22T19:38:05.668Z,97524.91
2022-11-22T19:39:37.906Z,97529.78
2022-11-22T19:41:11.266Z,97530.75
2022-11-22T19:42:43.278Z,97527.84
2022-11-22T19:44:17.806Z,97521.03
2022-11-22T19:45:50.691Z,97517.84
2022-11-22T19:47:23.291Z,97520.06
2022-11-22T19:48:57.524Z,97515.19
2022-11-22T19:50:30.045Z,97511.53
2022-11-22T19:52:02.586Z,97520.78
2022-11-22T19:53:36.378Z,97520.56
2022-11-22T19:55:09.134Z,97525.66
2022-11-22T19:56:41.525Z,97524.44
2022-11-22T19:58:14.069Z,97527.34
2022-11-22T19:59:46.713Z,97521.06
2022-11-22T20:01:19.415Z,97525.66
2022-11-22T20:02:51.540Z,97515.69
2022-11-22T20:04:24.005Z,97515.69
2022-11-22T20:06:00.646Z,97510.34
2022-11-22T20:07:33.964Z,97507.91
2022-11-22T20:09:10.891Z,97514.72
2022-11-22T20:10:43.506Z,97503.28
2022-11-22T20:12:15.484Z,97499.16
2022-11-22T20:13:49.411Z,97508.91
2022-11-22T20:15:21.981Z,97504.75
2022-11-22T20:16:53.687Z,97504.75
2022-11-22T20:18:26.329Z,97505.50
2022-11-22T20:19:58.745Z,97504.97
2022-11-22T20:21:31.935Z,97493.56
2022-11-22T20:23:04.151Z,97500.63
2022-11-22T20:24:36.786Z,97498.19
2022-11-22T20:26:12.650Z,97500.13
2022-11-22T20:27:45.222Z,97500.88
2022-11-22T20:29:17.826Z,97508.38
2022-11-22T20:30:50.276Z,97509.84
2022-11-22T20:32:22.888Z,97503.03
2022-11-22T20:33:55.659Z,97504.25
2022-11-22T20:35:27.827Z,97510.34
2022-11-22T20:37:00.877Z,97505.72
2022-11-22T20:38:37.228Z,97506.22
2022-11-22T20:40:10.640Z,97501.09
2022-11-22T20:41:42.818Z,97507.66
2022-11-22T20:43:17.266Z,97502.31
2022-11-22T20:44:49.931Z,97499.63
2022-11-22T20:46:24.572Z,97503.53
2022-11-22T20:47:57.110Z,97504.25
2022-11-22T20:49:29.598Z,97507.66
2022-11-22T20:51:02.630Z,97502.81
2022-11-22T20:52:35.015Z,97508.38
2022-11-22T20:54:07.516Z,97503.28
2022-11-22T20:55:40.541Z,97505.00
